This is the latest recevied weather packets stored in our database for station/object VE6TS-4. If no packets are shown the sender has not sent any weather packets the latest 10 day(s).
| Time | Temp. | Humidity | Pressure | Rain* | Wind** | Luminosity | Snow |
|---|---|---|---|---|---|---|---|
| 1777792456 | -17.78° C | 39% | 1014.7 hPa | 10.41 mm | - | - | - |
| 1777791954 | -17.78° C | 39% | 1014.8 hPa | 10.16 mm | - | - | - |
| 1777791451 | -17.78° C | 39% | 1014.7 hPa | 10.16 mm | - | - | - |
| 1777790950 | -17.78° C | 39% | 1014.7 hPa | 9.91 mm | - | - | - |
| 1777790448 | -17.78° C | 40% | 1014.7 hPa | 9.91 mm | - | - | - |
| 1777789442 | -17.78° C | 38% | 1014.6 hPa | 9.91 mm | - | - | - |
| 1777788940 | -17.78° C | 38% | 1014.7 hPa | 9.91 mm | - | - | - |
| 1777788437 | -17.78° C | 38% | 1014.8 hPa | 9.65 mm | - | - | - |
| 1777787935 | -17.78° C | 39% | 1014.7 hPa | 9.65 mm | - | - | - |
| 1777787433 | -17.78° C | 39% | 1014.8 hPa | 9.4 mm | - | - | - |
| 1777786930 | -17.78° C | 38% | 1014.9 hPa | 9.4 mm | - | - | - |
| 1777786428 | -17.78° C | 38% | 1014.8 hPa | 9.4 mm | - | - | - |
| 1777785927 | -17.78° C | 38% | 1015.1 hPa | 9.4 mm | - | - | - |
| 1777785424 | -17.78° C | 38% | 1015 hPa | 9.4 mm | - | - | - |
| 1777782911 | -17.78° C | 37% | 1015.2 hPa | 9.14 mm | - | - | - |
| 1777778891 | -17.78° C | 35% | 1014.9 hPa | 9.14 mm | - | - | - |
| 1777747746 | -17.78° C | 39% | 1020.4 hPa | 0.76 mm | - | - | - |
| 1777732175 | -17.78° C | 42% | 1022.5 hPa | 1.78 mm | - | - | - |
| 1777730668 | -17.78° C | 43% | 1022.4 hPa | 1.78 mm | - | - | - |
| 1777729663 | -17.78° C | 44% | 1022.4 hPa | 1.78 mm | - | - | - |
| 1777726649 | -17.78° C | 42% | 1022.4 hPa | 1.52 mm | - | - | - |
| 1777725645 | -17.78° C | 43% | 1022.1 hPa | 1.52 mm | - | - | - |
| 1777722129 | -17.78° C | 43% | 1022 hPa | 1.27 mm | - | - | - |
| 1777720119 | -17.78° C | 42% | 1022 hPa | 1.27 mm | - | - | - |
| 1777719116 | -17.78° C | 43% | 1022.1 hPa | 1.27 mm | - | - | - |
* Rain since midnight (hover to see other rain measurements)
** Current wind speed in m/s (hover to see current wind gust speed)